Time;durP1;ratioP1;P1;durP2;ratioP2;P2;SDS_P1;SDS_P2;PMS_P1;PMS_P2;Temp;Humidity;BMP_temperature;BMP_pressure;BME280_temperature;BME280_humidity;BME280_pressure;Samples;Min_cycle;Max_cycle;Signal;HPM_P1;HPM_P2
2020/12/25 00:01:59;;;;;;;8.73;6.93;;;1.50;96.30;;;;;;4995351;28;20173;-74
2020/12/25 00:04:24;;;;;;;9.40;6.50;;;1.50;96.30;;;;;;4995285;28;20724;-73
2020/12/25 00:06:50;;;;;;;8.77;6.07;;;1.40;96.30;;;;;;4993972;28;20284;-73
2020/12/25 00:09:15;;;;;;;8.47;7.20;;;1.40;96.30;;;;;;4995179;28;20178;-74
2020/12/25 00:11:41;;;;;;;8.77;7.40;;;1.40;96.30;;;;;;4994976;28;20181;-74
2020/12/25 00:14:06;;;;;;;7.17;6.47;;;1.40;96.30;;;;;;4993718;28;20169;-73
2020/12/25 00:16:32;;;;;;;7.33;5.87;;;1.40;96.30;;;;;;4993654;28;20695;-73
2020/12/25 00:18:58;;;;;;;7.57;5.97;;;1.40;96.30;;;;;;4995426;28;20216;-74
2020/12/25 00:21:24;;;;;;;8.63;6.53;;;1.40;96.30;;;;;;4993719;28;20417;-74
2020/12/25 00:23:49;;;;;;;6.80;6.10;;;1.50;96.30;;;;;;4993672;28;20181;-73
2020/12/25 00:26:41;;;;;;;6.90;6.10;;;1.50;96.30;;;;;;4993612;28;20628;-74
2020/12/25 00:29:07;;;;;;;7.00;5.80;;;1.40;96.30;;;;;;4995534;28;20192;-73
2020/12/25 00:31:38;;;;;;;8.07;7.07;;;1.40;96.30;;;;;;4993452;28;20869;-73
2020/12/25 00:34:09;;;;;;;7.37;6.00;;;1.40;96.30;;;;;;4993369;28;20637;-74
2020/12/25 00:36:37;;;;;;;6.57;5.23;;;1.40;96.30;;;;;;4994915;28;20479;-73
2020/12/25 00:39:05;;;;;;;9.43;6.33;;;1.40;96.30;;;;;;4994705;28;20412;-73
2020/12/25 00:41:31;;;;;;;6.33;5.60;;;1.40;96.30;;;;;;4994526;28;20428;-73
2020/12/25 00:43:57;;;;;;;8.07;5.20;;;1.40;96.30;;;;;;4993296;28;20920;-74
2020/12/25 00:46:22;;;;;;;8.27;6.30;;;1.40;96.30;;;;;;4994462;28;20204;-74
2020/12/25 00:48:48;;;;;;;7.20;5.77;;;1.40;96.30;;;;;;4994362;28;20235;-74
2020/12/25 00:51:19;;;;;;;7.97;6.93;;;1.40;96.30;;;;;;4994414;28;20200;-76
2020/12/25 00:53:45;;;;;;;8.50;6.20;;;1.40;96.30;;;;;;4994351;28;20428;-74
2020/12/25 00:56:11;;;;;;;7.20;5.70;;;1.30;96.30;;;;;;4993074;28;20535;-74
2020/12/25 00:58:38;;;;;;;5.73;5.10;;;1.30;96.30;;;;;;4992976;28;20409;-75
2020/12/25 05:02:35;;;;;;;1.60;1.50;;;0.20;96.30;;;;;;5010645;23;20489;-75
2020/12/25 05:05:01;;;;;;;1.73;1.57;;;;;;;;;;4978744;28;20469;-75
2020/12/25 05:07:27;;;;;;;1.30;1.20;;;0.10;96.30;;;;;;4978365;28;20457;-75
2020/12/25 05:09:55;;;;;;;1.23;1.03;;;0.10;96.30;;;;;;4977665;28;20587;-74
2020/12/25 05:14:56;;;;;;;1.33;1.07;;;;;;;;;;4972224;28;20500;-70
2020/12/25 05:17:22;;;;;;;1.20;1.10;;;0.00;96.30;;;;;;4989388;28;20898;-70
2020/12/25 05:19:48;;;;;;;1.20;1.00;;;0.00;96.30;;;;;;4974260;28;20178;-72
2020/12/25 05:22:18;;;;;;;2.43;1.30;;;0.00;96.30;;;;;;4973649;28;20170;-70
2020/12/25 05:24:43;;;;;;;2.57;0.97;;;0.00;96.30;;;;;;4974352;28;20437;-70
2020/12/25 05:27:13;;;;;;;1.53;1.00;;;0.00;96.30;;;;;;4974287;28;20410;-70
2020/12/25 05:29:39;;;;;;;1.10;1.00;;;0.10;96.30;;;;;;4972988;28;20638;-70
2020/12/25 05:32:06;;;;;;;1.00;0.80;;;0.10;96.30;;;;;;4973524;28;20894;-71
2020/12/25 05:34:34;;;;;;;1.50;1.30;;;0.10;96.30;;;;;;4974128;28;20464;-71
2020/12/25 05:37:03;;;;;;;1.50;1.30;;;0.10;96.30;;;;;;4974140;28;20425;-70
2020/12/25 05:39:37;;;;;;;1.97;1.80;;;0.10;96.30;;;;;;4974216;28;20417;-70
2020/12/25 05:42:07;;;;;;;2.30;1.70;;;0.10;96.30;;;;;;4972234;28;20426;-70
2020/12/25 05:44:50;;;;;;;9.23;1.40;;;0.10;96.30;;;;;;4973981;28;20450;-70
2020/12/25 05:47:17;;;;;;;2.27;2.00;;;0.20;96.30;;;;;;4974108;28;20424;-70
2020/12/25 05:49:43;;;;;;;2.33;2.13;;;0.20;96.30;;;;;;4973942;28;20422;-70
2020/12/25 05:52:10;;;;;;;4.80;1.90;;;0.20;96.30;;;;;;4972002;28;20421;-70
2020/12/25 05:54:36;;;;;;;38.80;2.57;;;0.20;96.30;;;;;;4973741;28;20873;-70
2020/12/25 05:57:06;;;;;;;60.43;3.40;;;0.10;96.30;;;;;;4973379;28;20437;-70
2020/12/25 05:59:32;;;;;;;53.10;3.30;;;0.10;96.30;;;;;;4973807;28;20933;-70
2020/12/25 06:02:03;;;;;;;51.40;3.40;;;0.10;96.30;;;;;;4973082;28;20421;-70
2020/12/25 06:04:30;;;;;;;4.30;2.60;;;0.10;96.30;;;;;;4973643;28;20437;-70
2020/12/25 06:06:56;;;;;;;2.13;1.80;;;0.10;96.30;;;;;;4973744;28;20468;-70
2020/12/25 06:09:28;;;;;;;2.37;2.17;;;0.10;96.30;;;;;;4973278;28;20430;-70
2020/12/25 06:11:54;;;;;;;15.60;2.40;;;0.20;96.30;;;;;;4970955;28;20634;-70
2020/12/25 06:14:19;;;;;;;2.30;1.90;;;0.10;96.30;;;;;;4988281;28;20480;-70
2020/12/25 06:17:11;;;;;;;2.70;2.40;;;0.10;96.30;;;;;;4973520;28;20178;-70
2020/12/25 06:20:01;;;;;;;2.57;2.30;;;0.10;96.30;;;;;;4975563;28;20221;-70
2020/12/25 06:22:30;;;;;;;3.50;2.90;;;0.10;96.30;;;;;;4972516;28;20422;-70
2020/12/25 06:24:58;;;;;;;2.53;2.33;;;0.10;96.30;;;;;;4972239;28;20430;-70
2020/12/25 06:27:28;;;;;;;3.40;2.47;;;0.20;96.30;;;;;;4973548;28;20421;-70
2020/12/25 06:30:00;;;;;;;2.20;2.00;;;0.20;96.30;;;;;;4971396;28;20484;-70
2020/12/25 06:32:26;;;;;;;2.03;1.83;;;0.20;96.30;;;;;;4968137;28;20513;-70
2020/12/25 06:34:55;;;;;;;3.00;2.57;;;0.20;96.30;;;;;;4952767;29;20517;-70
2020/12/25 06:37:27;;;;;;;3.93;2.70;;;0.20;96.30;;;;;;4954086;28;20410;-70
2020/12/25 06:39:55;;;;;;;2.70;2.40;;;0.20;96.30;;;;;;4952834;29;20428;-70
2020/12/25 06:42:32;;;;;;;1.77;1.60;;;0.20;96.30;;;;;;4970747;28;20452;-70
2020/12/25 06:44:58;;;;;;;2.33;2.13;;;0.10;96.30;;;;;;4973170;28;20444;-71
2020/12/25 06:47:29;;;;;;;2.57;2.37;;;0.20;96.30;;;;;;4972848;28;20418;-70
2020/12/25 06:49:55;;;;;;;2.77;2.57;;;0.20;96.30;;;;;;4973441;28;20413;-70
2020/12/25 06:52:26;;;;;;;3.20;2.07;;;0.10;96.30;;;;;;4972820;28;20421;-70
2020/12/25 06:54:52;;;;;;;2.53;2.00;;;0.10;96.30;;;;;;4971240;28;20241;-70
2020/12/25 06:57:17;;;;;;;2.30;2.10;;;0.20;96.30;;;;;;4973086;28;20504;-70
2020/12/25 06:59:47;;;;;;;2.20;1.90;;;0.20;96.30;;;;;;4973223;28;20170;-70
2020/12/25 07:02:14;;;;;;;2.40;2.07;;;0.20;96.30;;;;;;4972892;28;20225;-70
2020/12/25 07:04:42;;;;;;;2.70;1.97;;;0.20;96.30;;;;;;4972988;28;20804;-70
2020/12/25 07:07:12;;;;;;;1.97;1.60;;;0.20;96.30;;;;;;4968093;28;21027;-71
2020/12/25 07:09:47;;;;;;;1.70;1.60;;;0.10;96.30;;;;;;4974034;28;20512;-70
2020/12/25 07:12:18;;;;;;;1.87;1.70;;;0.10;96.30;;;;;;4976154;28;20479;-70
2020/12/25 07:14:44;;;;;;;2.13;1.93;;;0.10;96.30;;;;;;4976168;28;20473;-70
2020/12/25 07:17:09;;;;;;;7.10;1.90;;;0.10;96.30;;;;;;4975159;28;20601;-70
2020/12/25 07:19:35;;;;;;;1.80;1.70;;;0.10;96.30;;;;;;4968993;28;20262;-71
2020/12/25 07:22:03;;;;;;;3.17;2.30;;;0.10;96.30;;;;;;4968910;28;20214;-70
2020/12/25 07:24:28;;;;;;;3.50;1.67;;;0.00;96.30;;;;;;4975918;28;20447;-70
2020/12/25 07:26:54;;;;;;;1.10;1.00;;;0.00;96.30;;;;;;4976152;28;20421;-70
2020/12/25 07:29:21;;;;;;;3.97;1.30;;;0.00;96.30;;;;;;4975953;28;20697;-70
2020/12/25 07:31:48;;;;;;;1.73;1.23;;;0.00;96.30;;;;;;4975668;28;20410;-70
2020/12/25 07:34:18;;;;;;;3.00;1.40;;;-0.10;96.30;;;;;;4975723;28;20476;-70
2020/12/25 07:36:45;;;;;;;1.57;0.90;;;-0.10;96.30;;;;;;4975851;28;20417;-70
2020/12/25 07:39:10;;;;;;;1.67;1.40;;;-0.10;96.30;;;;;;4969069;28;20414;-70
2020/12/25 07:41:36;;;;;;;2.63;1.17;;;-0.10;96.30;;;;;;4974372;28;20425;-70
2020/12/25 07:44:03;;;;;;;1.60;1.50;;;;;;;;;;4975613;28;20678;-70
2020/12/25 07:46:30;;;;;;;4.93;1.60;;;-0.10;96.30;;;;;;4975733;28;20178;-70
2020/12/25 07:49:00;;;;;;;1.43;1.33;;;-0.10;96.30;;;;;;4975773;28;20429;-70
2020/12/25 07:51:25;;;;;;;2.57;1.43;;;-0.10;96.30;;;;;;4975699;28;20422;-70
2020/12/25 07:53:53;;;;;;;1.93;1.83;;;-0.10;96.30;;;;;;4975371;28;20457;-70
2020/12/25 07:56:21;;;;;;;2.70;1.67;;;-0.10;96.30;;;;;;4988872;28;20241;-70
2020/12/25 07:58:51;;;;;;;2.70;2.03;;;-0.10;96.30;;;;;;4969172;28;20417;-70
2020/12/25 08:01:21;;;;;;;1.43;1.17;;;-0.10;96.30;;;;;;4975213;28;20843;-70
2020/12/25 08:03:47;;;;;;;1.47;1.30;;;-0.10;96.30;;;;;;4975059;28;20465;-70
2020/12/25 08:06:15;;;;;;;1.10;0.93;;;-0.10;96.30;;;;;;4975407;28;20457;-70
2020/12/25 08:09:08;;;;;;;1.10;1.00;;;-0.10;96.30;;;;;;4973968;28;20422;-70
2020/12/25 08:11:35;;;;;;;2.67;1.70;;;-0.10;96.30;;;;;;4978849;28;20433;-70
2020/12/25 08:14:14;;;;;;;2.83;1.80;;;0.00;96.30;;;;;;4972759;28;20481;-70
2020/12/25 08:16:42;;;;;;;2.27;2.10;;;0.00;96.30;;;;;;4975064;28;20513;-70
2020/12/25 08:19:08;;;;;;;7.03;2.60;;;0.00;96.30;;;;;;4969000;28;20412;-70
2020/12/25 08:21:36;;;;;;;5.43;1.80;;;0.00;96.30;;;;;;4973766;28;20425;-70
2020/12/25 08:24:02;;;;;;;3.20;1.40;;;0.00;96.30;;;;;;4974946;28;20674;-70
2020/12/25 08:26:33;;;;;;;5.13;2.20;;;0.00;96.30;;;;;;4974819;28;20449;-69
2020/12/25 08:28:59;;;;;;;2.57;2.20;;;0.00;96.30;;;;;;4974929;28;20416;-70
2020/12/25 08:31:24;;;;;;;2.03;1.50;;;0.00;96.30;;;;;;4975061;28;20409;-70
2020/12/25 08:33:54;;;;;;;2.60;1.70;;;0.00;96.30;;;;;;4974252;28;20670;-70
2020/12/25 08:36:21;;;;;;;2.33;1.90;;;0.00;96.30;;;;;;4974644;28;20201;-70
2020/12/25 08:38:47;;;;;;;1.87;1.77;;;;;;;;;;4974884;28;20424;-70
2020/12/25 08:41:12;;;;;;;3.30;1.97;;;-0.10;96.30;;;;;;4973426;28;20445;-69
2020/12/25 08:43:38;;;;;;;1.83;1.67;;;-0.10;96.30;;;;;;4974320;28;20933;-70
2020/12/25 08:46:04;;;;;;;1.80;1.70;;;-0.10;96.30;;;;;;4974907;28;20174;-70
2020/12/25 08:48:31;;;;;;;3.40;2.20;;;-0.10;96.30;;;;;;4974476;28;20332;-70
2020/12/25 08:51:07;;;;;;;2.27;2.17;;;-0.10;96.30;;;;;;4972540;28;20406;-70
2020/12/25 08:53:33;;;;;;;2.23;1.47;;;-0.10;96.30;;;;;;4973315;28;20531;-70
2020/12/25 08:56:14;;;;;;;4.57;2.30;;;-0.10;96.30;;;;;;4972566;28;20933;-69
2020/12/25 08:58:39;;;;;;;4.50;2.10;;;-0.10;96.30;;;;;;4971546;28;20418;-69
2020/12/25 09:01:05;;;;;;;2.33;1.80;;;-0.10;96.30;;;;;;4973019;28;20424;-70
2020/12/25 09:03:41;;;;;;;21.23;1.80;;;-0.10;96.30;;;;;;4973271;28;20237;-70
2020/12/25 09:06:08;;;;;;;3.47;1.80;;;-0.10;96.30;;;;;;4972293;28;20646;-69
2020/12/25 09:08:34;;;;;;;1.90;1.80;;;-0.10;96.30;;;;;;4974472;28;20414;-69
2020/12/25 09:10:59;;;;;;;2.60;1.77;;;-0.10;96.30;;;;;;4974689;28;20420;-69
2020/12/25 09:13:25;;;;;;;2.83;2.03;;;-0.10;96.30;;;;;;4974283;28;20584;-69
2020/12/25 09:15:51;;;;;;;2.63;2.13;;;-0.10;96.30;;;;;;4974304;28;20691;-69
2020/12/25 09:18:16;;;;;;;3.97;2.40;;;;;;;;;;4974081;28;20670;-70
2020/12/25 09:20:42;;;;;;;2.70;2.50;;;;;;;;;;4974089;28;20182;-69
2020/12/25 09:23:08;;;;;;;3.03;2.50;;;-0.10;96.30;;;;;;4973911;28;20437;-69
2020/12/25 09:25:33;;;;;;;4.10;1.80;;;-0.10;96.30;;;;;;4974335;28;20421;-70
2020/12/25 09:27:59;;;;;;;2.37;1.30;;;;;;;;;;4974267;28;20193;-69
2020/12/25 09:30:25;;;;;;;3.13;2.10;;;-0.10;96.30;;;;;;4974284;28;20816;-69
2020/12/25 09:32:50;;;;;;;4.10;1.97;;;-0.10;96.30;;;;;;4973721;28;20206;-70
2020/12/25 09:35:16;;;;;;;2.50;1.83;;;-0.10;96.30;;;;;;4989353;28;20296;-70
2020/12/25 09:37:41;;;;;;;3.37;2.17;;;-0.10;96.30;;;;;;4974291;28;20210;-69
2020/12/25 09:40:07;;;;;;;2.40;1.80;;;-0.10;96.30;;;;;;4974233;28;20193;-69
2020/12/25 09:42:32;;;;;;;1.80;1.63;;;-0.20;96.30;;;;;;4973814;28;20185;-69
2020/12/25 09:44:58;;;;;;;1.23;1.03;;;;;;;;;;4974230;28;20181;-69
2020/12/25 09:47:23;;;;;;;2.20;1.37;;;-0.10;96.30;;;;;;4974158;28;20178;-69
2020/12/25 09:49:49;;;;;;;2.30;1.70;;;-0.20;96.30;;;;;;4973650;28;20658;-69
2020/12/25 09:52:14;;;;;;;2.23;2.03;;;-0.10;96.30;;;;;;4973082;28;20178;-69
2020/12/25 09:54:40;;;;;;;2.50;2.07;;;-0.10;96.30;;;;;;4972969;28;20209;-69
2020/12/25 09:57:05;;;;;;;6.20;1.83;;;-0.10;96.30;;;;;;4973465;28;20269;-70
2020/12/25 09:59:31;;;;;;;1.63;1.53;;;-0.10;96.30;;;;;;4973610;28;20174;-69
2020/12/25 10:01:56;;;;;;;2.23;1.90;;;-0.10;96.30;;;;;;4973428;28;20241;-69
2020/12/25 10:04:22;;;;;;;1.50;1.40;;;-0.20;96.30;;;;;;4973643;28;20201;-69
2020/12/25 10:06:47;;;;;;;7.70;1.70;;;-0.20;96.30;;;;;;4988587;28;20554;-69
2020/12/25 10:09:13;;;;;;;1.43;1.30;;;-0.20;96.30;;;;;;4973576;28;20183;-70
2020/12/25 10:11:39;;;;;;;2.33;2.13;;;;;;;;;;4973353;28;20205;-69
2020/12/25 10:14:04;;;;;;;2.00;1.63;;;-0.10;96.30;;;;;;4973473;28;20490;-69
2020/12/25 10:16:30;;;;;;;2.03;1.50;;;-0.10;96.30;;;;;;4973525;28;20457;-69
2020/12/25 10:18:55;;;;;;;7.63;1.87;;;-0.10;96.30;;;;;;4973523;28;20608;-69
2020/12/25 10:21:21;;;;;;;4.30;1.93;;;-0.20;96.30;;;;;;4972086;28;20182;-69
2020/12/25 10:23:46;;;;;;;1.73;1.43;;;-0.20;96.30;;;;;;4973086;28;20232;-69
2020/12/25 10:26:12;;;;;;;1.60;0.87;;;-0.20;96.30;;;;;;4973431;28;20665;-69
2020/12/25 10:28:38;;;;;;;1.90;1.47;;;-0.20;96.30;;;;;;4973296;28;20260;-69
2020/12/25 10:31:05;;;;;;;2.23;1.43;;;-0.20;96.30;;;;;;4973438;28;20185;-69
2020/12/25 10:33:30;;;;;;;1.43;0.93;;;-0.10;96.30;;;;;;4972967;28;20444;-69
2020/12/25 10:35:56;;;;;;;1.50;1.40;;;-0.20;96.30;;;;;;4973234;28;20465;-69
2020/12/25 10:38:21;;;;;;;2.27;1.40;;;-0.10;96.30;;;;;;4973222;28;20178;-69
2020/12/25 10:40:48;;;;;;;3.10;1.47;;;-0.20;96.30;;;;;;4973282;28;20541;-69
2020/12/25 10:43:13;;;;;;;2.23;1.70;;;-0.20;96.30;;;;;;4974991;28;20186;-69
2020/12/25 10:45:39;;;;;;;1.57;1.23;;;-0.20;96.30;;;;;;4979693;28;20428;-69
2020/12/25 10:48:04;;;;;;;2.00;1.27;;;-0.20;96.30;;;;;;4979804;28;20178;-69
2020/12/25 10:50:30;;;;;;;3.87;1.60;;;;;;;;;;4979678;28;20236;-69
2020/12/25 10:52:56;;;;;;;2.47;1.30;;;-0.20;96.30;;;;;;4979257;28;20198;-69
2020/12/25 10:55:21;;;;;;;1.30;1.20;;;-0.20;96.30;;;;;;4979509;28;20519;-70
2020/12/25 10:57:47;;;;;;;1.83;1.27;;;-0.20;96.30;;;;;;4979741;28;20257;-69
2020/12/25 11:00:13;;;;;;;4.33;1.60;;;-0.20;96.30;;;;;;4979666;28;20182;-69
2020/12/25 11:02:38;;;;;;;2.83;1.40;;;-0.10;96.30;;;;;;4979167;28;20174;-69
2020/12/25 11:05:04;;;;;;;1.57;0.93;;;-0.10;96.30;;;;;;4978322;28;20606;-69
2020/12/25 11:07:30;;;;;;;2.70;1.40;;;-0.10;96.30;;;;;;4979401;28;20208;-70
2020/12/25 11:09:55;;;;;;;3.63;1.20;;;-0.10;96.30;;;;;;4979514;28;20782;-69
2020/12/25 11:12:21;;;;;;;1.33;1.07;;;-0.10;96.30;;;;;;4979138;28;20190;-69
2020/12/25 11:14:47;;;;;;;1.67;0.90;;;;;;;;;;4991628;23;20574;-71
2020/12/25 11:17:18;;;;;;;0.93;0.83;;;0.00;96.30;;;;;;4979469;28;20174;-71
2020/12/25 11:19:44;;;;;;;1.20;1.00;;;0.00;96.30;;;;;;4979343;28;20778;-71
2020/12/25 11:22:13;;;;;;;2.23;0.90;;;0.00;96.30;;;;;;4978525;28;20402;-72
2020/12/25 11:24:43;;;;;;;1.80;0.93;;;0.00;96.30;;;;;;4979225;28;20273;-73
2020/12/25 11:27:09;;;;;;;2.20;0.90;;;;;;;;;;4979425;28;20456;-73
2020/12/25 11:29:35;;;;;;;1.60;1.13;;;0.10;96.30;;;;;;4979180;28;20409;-71
2020/12/25 11:32:00;;;;;;;3.80;1.20;;;0.10;96.30;;;;;;4978540;28;20205;-71
2020/12/25 11:34:26;;;;;;;1.23;1.00;;;0.10;96.30;;;;;;4978853;28;20236;-71
2020/12/25 11:36:51;;;;;;;2.03;0.87;;;;;;;;;;4979146;28;20186;-71
2020/12/25 11:39:17;;;;;;;3.27;1.00;;;-0.10;96.30;;;;;;4979400;28;20182;-71
2020/12/25 11:41:42;;;;;;;1.13;1.00;;;-0.20;96.30;;;;;;4978318;28;20178;-71
2020/12/25 11:44:08;;;;;;;2.50;1.00;;;-0.20;96.30;;;;;;4979029;28;20245;-72
2020/12/25 11:46:33;;;;;;;1.53;1.00;;;-0.20;96.30;;;;;;4978982;28;20182;-72
2020/12/25 11:48:59;;;;;;;1.67;1.50;;;-0.20;96.30;;;;;;4979136;28;20446;-71
2020/12/25 11:51:27;;;;;;;1.40;0.97;;;-0.10;96.30;;;;;;4979034;28;20669;-72
2020/12/25 11:53:53;;;;;;;2.13;1.10;;;-0.10;96.30;;;;;;4978305;28;20194;-72
2020/12/25 11:56:25;;;;;;;1.33;1.23;;;-0.10;96.30;;;;;;4975715;28;21002;-72
2020/12/25 11:58:51;;;;;;;1.20;0.90;;;-0.20;96.30;;;;;;4975889;28;20410;-72
2020/12/25 12:01:16;;;;;;;1.70;1.20;;;-0.10;96.30;;;;;;4975848;28;20757;-72
2020/12/25 12:03:43;;;;;;;2.70;1.00;;;-0.20;96.30;;;;;;4975005;28;20194;-73
2020/12/25 12:06:09;;;;;;;1.13;1.00;;;-0.20;96.30;;;;;;4975864;28;20181;-73
2020/12/25 12:08:35;;;;;;;1.40;1.10;;;-0.20;96.30;;;;;;4975711;28;20879;-72
2020/12/25 12:11:00;;;;;;;1.03;0.90;;;-0.30;96.30;;;;;;4975745;28;20457;-73
2020/12/25 12:13:26;;;;;;;0.97;0.87;;;-0.30;96.30;;;;;;4975141;28;20210;-72
2020/12/25 12:15:51;;;;;;;5.40;0.90;;;-0.30;96.30;;;;;;4975596;28;20198;-72
2020/12/25 12:18:17;;;;;;;0.90;0.70;;;-0.20;96.30;;;;;;4974290;28;20174;-72
2020/12/25 12:20:43;;;;;;;1.10;0.87;;;-0.20;96.30;;;;;;4975454;28;20178;-71
2020/12/25 12:23:09;;;;;;;1.87;1.10;;;-0.20;96.30;;;;;;4974719;28;20190;-72
2020/12/25 12:25:34;;;;;;;1.00;0.90;;;-0.20;96.30;;;;;;4975390;28;20420;-71
2020/12/25 12:28:00;;;;;;;2.83;1.10;;;-0.20;96.30;;;;;;4975523;28;20371;-72
2020/12/25 12:30:25;;;;;;;1.77;0.90;;;-0.10;96.30;;;;;;4975403;28;20542;-72
2020/12/25 12:32:51;;;;;;;1.10;0.80;;;;;;;;;;4974449;28;20217;-71
2020/12/25 12:35:17;;;;;;;1.10;0.90;;;-0.10;96.30;;;;;;4975369;28;20206;-71
2020/12/25 12:37:44;;;;;;;1.23;1.00;;;-0.10;96.30;;;;;;4975710;28;20493;-72
2020/12/25 12:40:11;;;;;;;3.47;0.90;;;-0.10;96.30;;;;;;4975486;28;20294;-72
2020/12/25 12:42:36;;;;;;;1.20;0.87;;;-0.10;96.30;;;;;;4955519;28;20929;-71
2020/12/25 12:45:02;;;;;;;0.90;0.80;;;-0.10;96.30;;;;;;4956136;28;20529;-72
2020/12/25 12:47:28;;;;;;;3.43;0.90;;;-0.20;96.30;;;;;;4955697;28;20191;-73
2020/12/25 12:49:54;;;;;;;1.03;0.73;;;-0.20;96.30;;;;;;4955738;28;20481;-72
2020/12/25 12:52:19;;;;;;;1.47;0.90;;;-0.20;96.30;;;;;;4955030;28;20918;-71
2020/12/25 12:54:45;;;;;;;1.10;0.83;;;-0.20;96.30;;;;;;4955519;28;20203;-72
2020/12/25 12:57:10;;;;;;;1.30;0.87;;;-0.20;96.30;;;;;;4955574;28;20559;-72
2020/12/25 12:59:38;;;;;;;1.07;0.90;;;-0.20;96.30;;;;;;4955633;28;20182;-72
2020/12/25 13:02:03;;;;;;;2.80;0.90;;;-0.30;96.30;;;;;;4954764;28;20258;-71
2020/12/25 13:04:29;;;;;;;1.00;0.70;;;-0.30;96.30;;;;;;4955638;28;21058;-71
2020/12/25 13:06:54;;;;;;;1.63;0.80;;;-0.30;96.30;;;;;;4954707;28;20271;-72
2020/12/25 13:09:20;;;;;;;2.83;0.80;;;-0.20;96.30;;;;;;4955346;28;20217;-72
2020/12/25 13:11:45;;;;;;;1.10;0.80;;;-0.30;96.30;;;;;;4954636;28;20273;-72
2020/12/25 13:14:11;;;;;;;1.07;0.73;;;-0.30;96.30;;;;;;4955284;28;20585;-72
2020/12/25 13:16:36;;;;;;;8.13;1.07;;;-0.20;96.30;;;;;;4955150;28;20249;-72
2020/12/25 13:19:03;;;;;;;1.27;0.70;;;-0.20;96.30;;;;;;4955319;28;20441;-71
2020/12/25 13:21:29;;;;;;;0.90;0.80;;;-0.20;96.30;;;;;;4955205;28;20171;-72
2020/12/25 13:23:56;;;;;;;1.30;0.70;;;-0.30;96.30;;;;;;4954371;28;20434;-72
2020/12/25 13:26:22;;;;;;;1.43;0.70;;;-0.30;96.30;;;;;;4955121;28;20567;-72
2020/12/25 13:28:49;;;;;;;1.20;0.80;;;-0.30;96.30;;;;;;4955139;28;20429;-72
2020/12/25 13:31:14;;;;;;;2.50;1.00;;;-0.20;96.30;;;;;;4954907;28;20419;-72
2020/12/25 13:33:40;;;;;;;1.50;0.80;;;-0.20;96.30;;;;;;4954445;28;20489;-71
2020/12/25 13:36:05;;;;;;;1.00;0.73;;;-0.20;96.30;;;;;;4954840;28;20201;-72
2020/12/25 13:38:31;;;;;;;0.90;0.77;;;-0.20;96.30;;;;;;4954937;28;20236;-71
2020/12/25 13:40:56;;;;;;;2.33;0.80;;;-0.20;96.30;;;;;;4960838;28;20175;-72
2020/12/25 13:43:21;;;;;;;2.77;0.73;;;-0.20;96.30;;;;;;4973263;28;20218;-72
2020/12/25 13:45:47;;;;;;;1.10;0.70;;;-0.20;96.30;;;;;;4974539;28;20615;-72
2020/12/25 13:48:12;;;;;;;1.60;0.80;;;-0.20;96.30;;;;;;4974086;28;20229;-72
2020/12/25 13:50:38;;;;;;;1.20;0.70;;;;;;;;;;4973909;28;20186;-72
2020/12/25 13:53:04;;;;;;;1.63;0.90;;;-0.20;96.30;;;;;;4973138;28;20697;-72
2020/12/25 13:55:29;;;;;;;6.10;0.80;;;-0.20;96.30;;;;;;4973704;28;20198;-71
2020/12/25 13:57:55;;;;;;;1.67;0.73;;;-0.20;96.30;;;;;;4973770;28;20182;-72
2020/12/25 14:00:20;;;;;;;1.00;0.80;;;-0.20;96.30;;;;;;4973743;28;20639;-72
2020/12/25 14:02:46;;;;;;;0.97;0.70;;;-0.20;96.30;;;;;;4972929;28;20170;-72
2020/12/25 14:05:11;;;;;;;2.43;1.17;;;-0.20;96.30;;;;;;4973686;28;20182;-72
2020/12/25 14:07:36;;;;;;;2.50;1.00;;;-0.20;96.30;;;;;;4973665;28;20557;-72
2020/12/25 14:10:02;;;;;;;1.43;0.70;;;-0.20;96.30;;;;;;4973684;28;20265;-72
2020/12/25 14:12:28;;;;;;;2.10;0.80;;;-0.20;96.30;;;;;;4973005;28;20174;-71
2020/12/25 14:14:53;;;;;;;1.00;0.83;;;-0.20;96.30;;;;;;4973231;28;20217;-72
2020/12/25 14:17:19;;;;;;;2.40;0.77;;;-0.30;96.30;;;;;;4973490;28;20186;-72
2020/12/25 14:19:44;;;;;;;1.93;1.07;;;-0.30;96.30;;;;;;4973364;28;20253;-72
2020/12/25 14:22:09;;;;;;;1.90;0.90;;;-0.40;96.30;;;;;;4972767;28;20229;-71
2020/12/25 14:24:35;;;;;;;1.20;0.90;;;-0.50;96.30;;;;;;4973354;28;20186;-72
2020/12/25 14:27:00;;;;;;;1.60;1.10;;;-0.50;96.30;;;;;;4973947;28;20213;-71
2020/12/25 14:29:26;;;;;;;1.00;0.90;;;-0.50;96.30;;;;;;4973771;28;20228;-71
2020/12/25 14:31:51;;;;;;;3.10;0.90;;;-0.50;96.30;;;;;;4973060;28;20684;-71
2020/12/25 14:34:17;;;;;;;0.97;0.77;;;;;;;;;;4973046;28;20205;-71
2020/12/25 14:36:43;;;;;;;1.23;1.13;;;-0.50;96.30;;;;;;4973347;28;20206;-73
2020/12/25 14:39:08;;;;;;;1.90;1.20;;;-0.50;96.30;;;;;;4973357;28;20178;-71
2020/12/25 14:41:35;;;;;;;2.70;1.17;;;-0.60;96.30;;;;;;4961776;28;20246;-72
2020/12/25 14:44:00;;;;;;;2.10;1.30;;;-0.60;96.30;;;;;;4953674;28;20190;-71
2020/12/25 14:46:26;;;;;;;1.50;1.20;;;-0.60;96.30;;;;;;4954074;28;20411;-72
2020/12/25 14:48:51;;;;;;;4.33;1.50;;;-0.50;96.30;;;;;;4953919;28;20183;-74
2020/12/25 14:51:20;;;;;;;2.43;1.40;;;-0.60;96.30;;;;;;4953897;28;20178;-71
2020/12/25 14:53:46;;;;;;;4.30;2.07;;;-0.50;96.30;;;;;;4953097;28;20198;-74
2020/12/25 14:56:19;;;;;;;2.20;1.30;;;-0.50;96.30;;;;;;4953765;28;20995;-71
2020/12/25 14:58:44;;;;;;;2.00;1.80;;;-0.60;96.30;;;;;;4953832;28;20171;-72
2020/12/25 15:01:10;;;;;;;2.13;1.47;;;;;;;;;;4953830;28;20416;-72
2020/12/25 15:03:38;;;;;;;1.77;1.63;;;-0.60;96.30;;;;;;4951960;28;20191;-73
2020/12/25 15:06:03;;;;;;;1.10;1.00;;;-0.60;96.30;;;;;;4953737;28;20430;-72
2020/12/25 15:08:29;;;;;;;3.60;1.30;;;-0.60;96.30;;;;;;4953916;28;20411;-71
2020/12/25 15:10:54;;;;;;;2.70;2.00;;;-0.50;96.30;;;;;;4953779;28;20191;-73
2020/12/25 15:13:20;;;;;;;2.00;1.80;;;-0.60;96.30;;;;;;4952764;28;20221;-71
2020/12/25 15:15:45;;;;;;;3.10;2.00;;;-0.60;96.30;;;;;;4953720;28;20250;-71
2020/12/25 15:18:11;;;;;;;4.40;2.10;;;-0.60;96.30;;;;;;4953638;28;20175;-71
2020/12/25 15:20:36;;;;;;;1.57;1.47;;;-0.60;96.30;;;;;;4953734;28;20222;-71
2020/12/25 15:23:01;;;;;;;4.80;1.63;;;-0.60;96.30;;;;;;4951728;28;20533;-72
2020/12/25 15:25:27;;;;;;;3.90;2.00;;;-0.60;96.30;;;;;;4953662;28;20175;-72
2020/12/25 15:27:52;;;;;;;2.20;2.07;;;-0.60;96.30;;;;;;4953483;28;20183;-71
2020/12/25 15:30:18;;;;;;;2.50;1.77;;;-0.60;96.30;;;;;;4955667;28;20636;-71
2020/12/25 15:32:43;;;;;;;1.83;1.73;;;-0.60;96.30;;;;;;4956733;28;20243;-71
2020/12/25 15:35:09;;;;;;;3.23;1.93;;;-0.60;96.30;;;;;;4957016;28;20206;-71
2020/12/25 15:37:34;;;;;;;2.17;1.97;;;-0.70;96.30;;;;;;4957116;28;20179;-71
2020/12/25 15:40:00;;;;;;;3.07;1.57;;;-0.70;96.30;;;;;;4957007;28;20178;-71
2020/12/25 15:42:25;;;;;;;2.03;1.83;;;-0.70;96.30;;;;;;4974075;28;20189;-73
2020/12/25 15:44:51;;;;;;;2.10;1.80;;;-0.80;96.30;;;;;;4976275;28;20217;-71
2020/12/25 15:47:16;;;;;;;3.30;2.20;;;-0.80;96.30;;;;;;4976394;28;20179;-71
2020/12/25 15:49:42;;;;;;;2.80;2.00;;;-0.80;96.30;;;;;;4976215;28;20182;-71
2020/12/25 15:52:07;;;;;;;2.80;2.07;;;-0.80;96.30;;;;;;4975454;28;20170;-71
2020/12/25 15:54:32;;;;;;;5.90;2.33;;;-0.90;96.30;;;;;;4976000;28;20536;-71
2020/12/25 15:56:58;;;;;;;3.50;2.30;;;-0.90;96.30;;;;;;4975908;28;20179;-72
2020/12/25 15:59:24;;;;;;;4.33;2.00;;;;;;;;;;4975996;28;20179;-71
2020/12/25 16:01:50;;;;;;;2.43;2.23;;;-0.80;96.30;;;;;;4975328;28;20178;-71
2020/12/25 16:04:15;;;;;;;4.23;2.57;;;-0.90;96.30;;;;;;4975847;28;20684;-71
2020/12/25 16:06:43;;;;;;;2.90;1.77;;;-0.90;96.30;;;;;;4975907;28;20175;-71
2020/12/25 16:09:09;;;;;;;3.23;1.97;;;-0.90;96.30;;;;;;4975831;28;20186;-72
2020/12/25 16:11:34;;;;;;;3.03;2.07;;;-0.90;96.30;;;;;;4975161;28;20425;-76
2020/12/25 16:14:00;;;;;;;2.20;2.00;;;-1.00;96.30;;;;;;4975348;28;20457;-71
2020/12/25 16:16:31;;;;;;;2.60;1.67;;;-1.00;96.30;;;;;;4975563;28;20249;-71
2020/12/25 16:18:56;;;;;;;2.17;1.83;;;-1.00;96.30;;;;;;4975608;28;20448;-71
2020/12/25 16:21:22;;;;;;;1.80;1.60;;;-1.00;96.30;;;;;;4975561;28;20420;-71
2020/12/25 16:23:48;;;;;;;2.40;1.50;;;-1.00;96.30;;;;;;4974817;28;20197;-71
2020/12/25 16:26:14;;;;;;;4.20;1.70;;;-1.00;96.30;;;;;;4975337;28;20429;-71
2020/12/25 16:28:40;;;;;;;1.40;1.30;;;-1.00;96.30;;;;;;4975326;28;20214;-71
2020/12/25 16:31:05;;;;;;;4.00;1.70;;;-1.10;96.30;;;;;;4975602;28;20488;-71
2020/12/25 16:33:31;;;;;;;3.70;1.70;;;-1.10;96.30;;;;;;4974582;28;20466;-72
2020/12/25 16:35:56;;;;;;;3.83;1.63;;;-1.10;96.30;;;;;;4975177;28;20206;-71
2020/12/25 16:38:22;;;;;;;1.60;1.50;;;-1.10;96.30;;;;;;4975255;28;20705;-71
2020/12/25 16:40:47;;;;;;;1.40;1.00;;;-1.10;96.30;;;;;;4969225;28;20180;-72
2020/12/25 16:43:13;;;;;;;5.00;1.30;;;-1.10;96.30;;;;;;4955062;28;20664;-71
2020/12/25 16:45:39;;;;;;;3.63;1.70;;;-1.10;96.30;;;;;;4955854;28;20183;-71
2020/12/25 16:48:04;;;;;;;1.57;1.40;;;-1.10;96.30;;;;;;4955809;28;20566;-70
2020/12/25 16:50:30;;;;;;;2.20;1.27;;;-1.10;96.30;;;;;;4955760;28;20421;-71
2020/12/25 16:52:55;;;;;;;2.00;1.40;;;-1.10;96.30;;;;;;4954897;28;20185;-71
2020/12/25 16:55:21;;;;;;;3.20;1.30;;;-1.10;96.30;;;;;;4955510;28;20261;-71
2020/12/25 16:57:46;;;;;;;3.43;1.43;;;-1.10;96.30;;;;;;4955632;28;20203;-71